Time;durP1;ratioP1;P1;durP2;ratioP2;P2;SDS_P1;SDS_P2;PMS_P1;PMS_P2;Temp;Humidity;BMP_temperature;BMP_pressure;BME280_temperature;BME280_humidity;BME280_pressure;Samples;Min_cycle;Max_cycle;Signal;HPM_P1;HPM_P2
2022/10/17 00:01:32;;;;;;;9.65;5.30;;;13.00;99.90;;;;;;7362707;19;20383;-46
2022/10/17 00:03:58;;;;;;;11.52;5.25;;;13.00;99.90;;;;;;7363447;19;20109;-46
2022/10/17 00:06:25;;;;;;;9.55;5.28;;;13.00;99.90;;;;;;7362848;19;20042;-48
2022/10/17 00:08:53;;;;;;;16.92;6.43;;;13.00;99.90;;;;;;7364086;19;20018;-48
2022/10/17 00:11:21;;;;;;;12.60;5.78;;;12.90;99.90;;;;;;7362953;19;20497;-50
2022/10/17 00:13:50;;;;;;;11.52;6.30;;;13.00;99.90;;;;;;7364040;19;20025;-48
2022/10/17 00:16:28;;;;;;;11.32;6.78;;;12.90;99.90;;;;;;7362860;19;20122;-46
2022/10/17 00:18:55;;;;;;;9.90;6.30;;;12.90;99.90;;;;;;7363299;19;20490;-49
2022/10/17 00:21:24;;;;;;;15.20;6.68;;;12.90;99.90;;;;;;7359996;19;20592;-46
2022/10/17 00:23:51;;;;;;;10.88;6.18;;;13.00;99.90;;;;;;7365879;19;20042;-49
2022/10/17 00:26:19;;;;;;;10.57;6.30;;;13.00;99.90;;;;;;7366044;19;20727;-46
2022/10/17 00:28:47;;;;;;;13.45;6.25;;;13.00;99.90;;;;;;7362885;19;20022;-45
2022/10/17 00:31:15;;;;;;;10.57;6.15;;;13.10;99.90;;;;;;7361260;19;20117;-46
2022/10/17 00:33:42;;;;;;;13.93;6.43;;;13.10;99.90;;;;;;7362331;19;20610;-48
2022/10/17 00:36:13;;;;;;;11.35;6.93;;;13.10;99.90;;;;;;7369994;19;20011;-41
2022/10/17 00:38:41;;;;;;;10.13;7.50;;;13.20;99.90;;;;;;7361389;19;20457;-43
2022/10/17 00:41:15;;;;;;;10.50;6.80;;;13.20;99.90;;;;;;7361073;19;20018;-44
2022/10/17 00:44:03;;;;;;;13.18;6.68;;;13.20;99.90;;;;;;7362224;19;20477;-43
2022/10/17 00:46:38;;;;;;;12.70;6.70;;;13.30;99.90;;;;;;7365423;19;20876;-46
2022/10/17 00:49:08;;;;;;;12.75;6.60;;;13.40;99.90;;;;;;7361569;19;20094;-44
2022/10/17 00:51:47;;;;;;;11.73;7.55;;;13.40;99.90;;;;;;7360686;19;20092;-41
2022/10/17 00:54:18;;;;;;;12.55;6.78;;;13.40;99.90;;;;;;7360380;19;20023;-42
2022/10/17 00:56:46;;;;;;;9.57;6.18;;;13.50;99.90;;;;;;7359736;19;20042;-41
2022/10/17 00:59:15;;;;;;;12.45;6.70;;;13.50;99.90;;;;;;7363821;19;20499;-43
2022/10/17 01:01:47;;;;;;;9.45;6.45;;;13.50;99.90;;;;;;7363005;19;20019;-44
2022/10/17 01:04:13;;;;;;;10.32;6.40;;;13.50;99.90;;;;;;7361744;19;20082;-42
2022/10/17 01:06:40;;;;;;;14.02;7.00;;;13.60;99.90;;;;;;7360587;19;20019;-41
2022/10/17 01:09:08;;;;;;;10.35;6.82;;;13.60;99.90;;;;;;7361607;19;20515;-42
2022/10/17 01:11:43;;;;;;;10.85;6.93;;;13.60;99.90;;;;;;7362150;19;20027;-42
2022/10/17 01:14:54;;;;;;;11.35;6.15;;;13.60;99.90;;;;;;7361642;19;20025;-40
2022/10/17 01:17:37;;;;;;;10.05;6.72;;;13.60;99.90;;;;;;7359216;19;20015;-44
2022/10/17 01:20:39;;;;;;;9.45;5.97;;;13.60;99.90;;;;;;7352464;19;20017;-41
2022/10/17 01:23:23;;;;;;;11.80;6.97;;;13.50;99.90;;;;;;7357409;19;20556;-42
2022/10/17 01:26:20;;;;;;;12.50;7.10;;;13.50;99.90;;;;;;7361633;19;20817;-41
2022/10/17 01:29:02;;;;;;;9.55;7.68;;;13.50;99.90;;;;;;7356692;19;20029;-41
2022/10/17 01:32:10;;;;;;;10.85;7.57;;;13.40;99.90;;;;;;7358580;19;20584;-43
2022/10/17 01:34:51;;;;;;;12.48;7.45;;;13.40;99.90;;;;;;7355962;19;20015;-43
2022/10/17 01:37:27;;;;;;;11.50;7.78;;;13.30;99.90;;;;;;7354959;19;20023;-45
2022/10/17 01:40:03;;;;;;;12.18;8.20;;;13.40;99.90;;;;;;7355474;19;20019;-42
2022/10/17 01:42:55;;;;;;;10.52;8.07;;;13.30;99.90;;;;;;7358327;19;20022;-44
2022/10/17 01:45:44;;;;;;;9.25;8.32;;;13.30;99.90;;;;;;7354593;19;20023;-41
2022/10/17 01:48:17;;;;;;;11.35;7.50;;;13.30;99.90;;;;;;7356024;19;20054;-44
2022/10/17 01:50:52;;;;;;;10.10;8.30;;;13.30;99.90;;;;;;7354521;19;20050;-49
2022/10/17 01:53:28;;;;;;;11.13;8.52;;;13.20;99.90;;;;;;7358400;19;20022;-49
2022/10/17 01:56:00;;;;;;;13.07;9.88;;;13.20;99.90;;;;;;7354216;19;20086;-46
2022/10/17 01:58:46;;;;;;;10.18;8.88;;;13.10;99.90;;;;;;7352813;19;20532;-50
2022/10/17 02:01:13;;;;;;;14.35;9.93;;;13.10;99.90;;;;;;7357531;19;20019;-50
2022/10/17 02:03:48;;;;;;;11.45;8.90;;;13.10;99.90;;;;;;7360527;19;20051;-47
2022/10/17 02:06:15;;;;;;;11.43;9.57;;;13.00;99.90;;;;;;7357881;19;20509;-50
2022/10/17 02:08:47;;;;;;;10.93;9.85;;;13.00;99.90;;;;;;7358304;19;20436;-49
2022/10/17 02:11:20;;;;;;;10.75;9.70;;;13.00;99.90;;;;;;7353735;19;20018;-49
2022/10/17 02:13:58;;;;;;;12.52;11.25;;;13.00;99.90;;;;;;7351898;19;20018;-45
2022/10/17 02:16:43;;;;;;;12.15;10.90;;;13.10;99.90;;;;;;7354467;19;20498;-47
2022/10/17 02:19:16;;;;;;;11.95;10.73;;;13.00;99.90;;;;;;7352955;19;20014;-49
2022/10/17 02:21:54;;;;;;;13.23;11.80;;;13.00;99.90;;;;;;7354954;19;20042;-46
2022/10/17 02:24:33;;;;;;;13.05;11.77;;;13.00;99.90;;;;;;7356884;19;20539;-46
2022/10/17 02:27:15;;;;;;;13.50;11.57;;;13.00;99.90;;;;;;7365209;19;20022;-49
2022/10/17 02:30:01;;;;;;;;;;;13.00;99.90;;;;;;7353824;19;20037;-48
2022/10/17 02:32:59;;;;;;;14.05;12.50;;;12.90;99.90;;;;;;7352129;19;20627;-50
2022/10/17 02:35:35;;;;;;;14.65;13.15;;;12.90;99.90;;;;;;7352618;19;20022;-45
2022/10/17 02:38:07;;;;;;;13.77;12.48;;;13.00;99.90;;;;;;7352784;19;20019;-46
2022/10/17 02:40:36;;;;;;;16.65;14.85;;;13.00;99.90;;;;;;7359180;19;20018;-46
2022/10/17 02:43:03;;;;;;;16.17;14.35;;;13.00;99.90;;;;;;7361950;19;20451;-51
2022/10/17 02:45:34;;;;;;;15.68;14.15;;;13.00;99.90;;;;;;7365363;19;20011;-43
2022/10/17 02:48:14;;;;;;;16.35;14.75;;;13.00;99.90;;;;;;7360842;19;20881;-43
2022/10/17 02:50:59;;;;;;;15.55;14.10;;;13.00;99.90;;;;;;7366673;19;20090;-41
2022/10/17 02:54:03;;;;;;;16.13;14.50;;;13.00;99.90;;;;;;7365022;19;20014;-50
2022/10/17 02:56:39;;;;;;;16.02;14.48;;;13.00;99.90;;;;;;7366713;19;20025;-45
2022/10/17 02:59:06;;;;;;;17.45;15.60;;;13.00;99.90;;;;;;7378217;19;20038;-46
2022/10/17 03:01:35;;;;;;;17.70;15.88;;;13.00;99.90;;;;;;7370096;19;20032;-47
2022/10/17 03:04:07;;;;;;;17.27;15.30;;;13.00;99.90;;;;;;7372206;19;20023;-47
2022/10/17 03:06:34;;;;;;;18.38;16.60;;;13.00;99.90;;;;;;7372963;19;20025;-45
2022/10/17 03:09:00;;;;;;;18.88;15.82;;;13.00;99.90;;;;;;7374409;19;20570;-49
2022/10/17 03:11:27;;;;;;;16.33;14.60;;;12.90;99.90;;;;;;7372608;19;22437;-46
2022/10/17 03:13:53;;;;;;;17.92;16.08;;;12.90;99.90;;;;;;7372576;19;20475;-47
2022/10/17 03:16:20;;;;;;;18.38;16.58;;;12.90;99.90;;;;;;7368575;19;20040;-49
2022/10/17 03:18:46;;;;;;;19.40;17.42;;;13.00;99.90;;;;;;7371571;19;20086;-51
2022/10/17 03:21:12;;;;;;;17.65;15.93;;;13.00;99.90;;;;;;7373028;19;20019;-46
2022/10/17 03:23:39;;;;;;;18.80;17.08;;;13.00;99.90;;;;;;7369283;19;20018;-49
2022/10/17 03:26:07;;;;;;;19.35;17.45;;;13.00;99.90;;;;;;7374271;19;20023;-47
2022/10/17 03:28:34;;;;;;;18.65;16.90;;;12.90;99.90;;;;;;7372139;19;20047;-48
2022/10/17 03:31:10;;;;;;;19.88;17.35;;;13.00;99.90;;;;;;7373141;19;20616;-50
2022/10/17 03:33:37;;;;;;;19.92;17.67;;;13.00;99.90;;;;;;7370705;19;20021;-49
2022/10/17 03:36:06;;;;;;;19.30;17.50;;;13.00;99.90;;;;;;7369852;19;20046;-48
2022/10/17 03:38:33;;;;;;;18.85;16.90;;;13.00;99.90;;;;;;7372344;19;20019;-45
2022/10/17 03:40:59;;;;;;;19.40;17.45;;;13.10;99.90;;;;;;7373181;19;20053;-45
2022/10/17 03:43:28;;;;;;;18.70;16.70;;;13.00;99.90;;;;;;7368854;19;20022;-48
2022/10/17 03:45:56;;;;;;;21.38;19.15;;;13.10;99.90;;;;;;7375565;19;20018;-49
2022/10/17 03:48:23;;;;;;;21.50;19.45;;;13.10;99.90;;;;;;7369213;19;20810;-49
2022/10/17 03:50:50;;;;;;;21.35;19.02;;;13.10;99.90;;;;;;7372054;19;20726;-46
2022/10/17 03:53:16;;;;;;;20.27;18.10;;;13.10;99.90;;;;;;7371911;19;20018;-46
2022/10/17 03:55:44;;;;;;;20.65;18.50;;;13.10;99.90;;;;;;7372022;19;20585;-50
2022/10/17 03:58:13;;;;;;;20.77;18.67;;;13.20;99.90;;;;;;7370938;19;20194;-48
2022/10/17 04:00:39;;;;;;;21.30;18.85;;;13.20;99.90;;;;;;7369866;19;20487;-49
2022/10/17 04:03:06;;;;;;;21.58;19.42;;;13.20;99.90;;;;;;7372437;19;20074;-46
2022/10/17 04:05:32;;;;;;;22.33;19.05;;;13.20;99.90;;;;;;7370071;19;20015;-50
2022/10/17 04:07:58;;;;;;;21.73;19.13;;;13.20;99.90;;;;;;7369825;19;20359;-49
2022/10/17 04:10:43;;;;;;;22.17;19.80;;;13.20;99.90;;;;;;7371580;19;20015;-48
2022/10/17 04:13:10;;;;;;;21.45;19.42;;;13.10;99.90;;;;;;7368192;19;20029;-49
2022/10/17 04:15:36;;;;;;;22.23;20.13;;;13.10;99.90;;;;;;7371917;19;20027;-46
2022/10/17 04:18:04;;;;;;;21.58;19.55;;;13.20;99.90;;;;;;7372494;19;20355;-46
2022/10/17 04:20:30;;;;;;;23.17;20.38;;;13.10;99.90;;;;;;7371587;19;20010;-48
2022/10/17 04:22:56;;;;;;;23.50;21.00;;;13.20;99.90;;;;;;7371158;19;20486;-50
2022/10/17 04:25:23;;;;;;;23.13;19.83;;;13.20;99.90;;;;;;7373092;19;20089;-48
2022/10/17 04:27:57;;;;;;;23.08;20.73;;;13.10;99.90;;;;;;7372722;19;20494;-48
2022/10/17 04:30:23;;;;;;;21.80;19.63;;;13.10;99.90;;;;;;7370657;19;20398;-46
2022/10/17 04:32:50;;;;;;;22.38;20.15;;;13.10;99.90;;;;;;7370323;19;20029;-49
2022/10/17 04:35:20;;;;;;;23.50;21.00;;;13.10;99.90;;;;;;7368733;19;20537;-48
2022/10/17 04:37:51;;;;;;;23.75;21.35;;;13.10;99.90;;;;;;7371928;19;20534;-49
2022/10/17 04:40:19;;;;;;;23.40;20.95;;;13.10;99.90;;;;;;7370010;19;20018;-45
2022/10/17 04:42:46;;;;;;;23.25;21.05;;;13.20;99.90;;;;;;7366344;19;20359;-49
2022/10/17 04:45:17;;;;;;;21.75;19.63;;;13.20;99.90;;;;;;7367140;19;20015;-47
2022/10/17 04:47:45;;;;;;;27.73;21.88;;;13.20;99.90;;;;;;7368691;19;20034;-52
2022/10/17 04:50:11;;;;;;;25.27;22.75;;;13.30;99.90;;;;;;7366310;19;20486;-48
2022/10/17 04:52:39;;;;;;;23.90;21.50;;;13.20;99.90;;;;;;7370851;19;20030;-50
2022/10/17 04:55:08;;;;;;;25.85;23.02;;;13.20;99.90;;;;;;7367650;19;20044;-49
2022/10/17 04:57:36;;;;;;;24.08;21.45;;;13.30;99.90;;;;;;7369749;19;20014;-50
2022/10/17 05:00:12;;;;;;;25.30;22.63;;;13.30;99.90;;;;;;7367491;19;20030;-50
2022/10/17 05:03:05;;;;;;;26.85;22.02;;;13.30;99.90;;;;;;7369168;19;20493;-50
2022/10/17 05:05:32;;;;;;;25.60;22.20;;;13.30;99.90;;;;;;7367413;19;20070;-46
2022/10/17 05:08:00;;;;;;;24.42;22.10;;;13.30;99.90;;;;;;7370441;19;20022;-43
2022/10/17 05:10:34;;;;;;;26.05;23.48;;;13.30;99.90;;;;;;7369937;19;20031;-43
2022/10/17 05:13:01;;;;;;;26.33;23.73;;;13.30;99.90;;;;;;7368096;19;20581;-43
2022/10/17 05:15:31;;;;;;;25.30;22.75;;;13.30;99.90;;;;;;7369807;19;20933;-44
2022/10/17 05:17:57;;;;;;;26.67;23.42;;;13.40;99.90;;;;;;7368631;19;20014;-41
2022/10/17 05:20:25;;;;;;;26.00;23.35;;;13.40;99.90;;;;;;7368433;19;20039;-43
2022/10/17 05:22:52;;;;;;;26.38;22.98;;;13.40;99.90;;;;;;7366942;19;20085;-46
2022/10/17 05:25:20;;;;;;;26.40;23.30;;;13.40;99.90;;;;;;7369198;19;20035;-46
2022/10/17 05:27:47;;;;;;;26.42;23.92;;;13.40;99.90;;;;;;7371149;19;20022;-42
2022/10/17 05:30:14;;;;;;;26.40;22.58;;;13.50;99.90;;;;;;7366771;19;20024;-42
2022/10/17 05:32:41;;;;;;;31.00;23.52;;;13.50;99.90;;;;;;7363793;19;20030;-42
2022/10/17 05:35:08;;;;;;;25.25;22.73;;;13.50;99.90;;;;;;7369881;19;20022;-44
2022/10/17 05:37:35;;;;;;;25.58;22.92;;;13.50;99.90;;;;;;7365807;19;20519;-41
2022/10/17 05:40:02;;;;;;;25.27;22.80;;;13.50;99.90;;;;;;7369001;19;20020;-43
2022/10/17 05:42:29;;;;;;;25.58;22.90;;;13.50;99.90;;;;;;7367256;19;20022;-49
2022/10/17 05:44:57;;;;;;;24.83;22.40;;;13.40;99.90;;;;;;7369077;19;20117;-46
2022/10/17 05:47:25;;;;;;;26.70;23.83;;;13.40;99.90;;;;;;7367629;19;20025;-48
2022/10/17 05:49:51;;;;;;;26.95;24.13;;;13.50;99.90;;;;;;7366163;19;20017;-47
2022/10/17 05:52:20;;;;;;;26.35;23.73;;;13.50;99.90;;;;;;7367255;19;20869;-46
2022/10/17 05:55:06;;;;;;;27.90;24.17;;;13.60;99.90;;;;;;7367545;19;20018;-50
2022/10/17 05:57:33;;;;;;;28.85;25.90;;;13.60;99.90;;;;;;7368202;19;20025;-46
2022/10/17 06:00:01;;;;;;;26.70;23.85;;;13.70;99.90;;;;;;7368277;19;20101;-51
2022/10/17 06:02:41;;;;;;;32.25;24.88;;;13.70;99.90;;;;;;7366357;19;20082;-49
2022/10/17 06:05:08;;;;;;;28.05;25.00;;;13.80;99.90;;;;;;7365881;19;20018;-49
2022/10/17 06:07:35;;;;;;;29.98;25.50;;;13.90;99.90;;;;;;7367192;19;20057;-45
2022/10/17 06:10:02;;;;;;;26.48;23.70;;;14.00;99.90;;;;;;7368538;19;20033;-45
2022/10/17 06:12:30;;;;;;;26.90;24.00;;;14.00;99.90;;;;;;7366090;19;20022;-46
2022/10/17 06:14:56;;;;;;;28.23;24.00;;;14.10;99.90;;;;;;7364843;19;20022;-49
2022/10/17 06:17:22;;;;;;;29.58;23.70;;;14.10;99.90;;;;;;7356626;19;20021;-46
2022/10/17 06:19:49;;;;;;;27.77;23.10;;;14.20;99.90;;;;;;7356398;19;20022;-50
2022/10/17 06:22:15;;;;;;;25.95;22.38;;;14.30;99.90;;;;;;7359694;19;20104;-45
2022/10/17 06:24:42;;;;;;;25.92;22.73;;;14.30;99.90;;;;;;7366077;19;20029;-47
2022/10/17 06:27:09;;;;;;;25.10;21.17;;;14.40;99.90;;;;;;7362288;19;20118;-45
2022/10/17 06:29:36;;;;;;;24.92;22.52;;;14.50;99.90;;;;;;7367194;19;20014;-45
2022/10/17 06:32:02;;;;;;;24.50;21.92;;;14.60;99.90;;;;;;7372750;19;20510;-43
2022/10/17 06:34:31;;;;;;;25.70;21.55;;;14.60;99.90;;;;;;7376024;19;20053;-43
2022/10/17 06:36:59;;;;;;;23.40;20.90;;;14.70;99.90;;;;;;7368559;19;20022;-44
2022/10/17 06:39:32;;;;;;;26.98;24.20;;;14.70;99.90;;;;;;7373084;19;20019;-44
2022/10/17 06:42:04;;;;;;;21.88;19.70;;;14.80;99.90;;;;;;7372508;19;20394;-44
2022/10/17 06:44:57;;;;;;;24.33;20.90;;;14.80;99.90;;;;;;7371858;19;20096;-43
2022/10/17 06:47:39;;;;;;;25.27;22.60;;;14.90;99.90;;;;;;7372391;19;20025;-42
2022/10/17 06:50:24;;;;;;;20.60;18.38;;;15.00;99.90;;;;;;7371860;19;20014;-44
2022/10/17 06:53:10;;;;;;;22.08;19.42;;;15.00;99.90;;;;;;7376582;19;20021;-46
2022/10/17 06:56:01;;;;;;;20.70;17.52;;;15.00;99.90;;;;;;7371742;19;20018;-46
2022/10/17 06:58:50;;;;;;;20.23;18.23;;;15.10;99.90;;;;;;7368624;19;20018;-45
2022/10/17 07:01:33;;;;;;;18.58;16.45;;;15.10;99.90;;;;;;7370834;19;20041;-45
2022/10/17 07:04:02;;;;;;;21.67;16.92;;;15.10;99.90;;;;;;7374847;19;20036;-46
2022/10/17 07:06:30;;;;;;;19.45;17.58;;;15.10;99.90;;;;;;7371708;19;20029;-44
2022/10/17 07:09:02;;;;;;;19.10;17.17;;;15.20;99.90;;;;;;7372917;19;20135;-41
2022/10/17 07:11:28;;;;;;;20.33;18.35;;;15.30;99.90;;;;;;7377219;19;20027;-43
2022/10/17 07:13:55;;;;;;;20.60;17.38;;;15.20;99.90;;;;;;7371459;19;20014;-45
2022/10/17 07:16:21;;;;;;;21.35;17.30;;;15.30;99.90;;;;;;7371647;19;20029;-45
2022/10/17 07:18:54;;;;;;;19.13;17.17;;;15.30;99.90;;;;;;7373587;19;20465;-44
2022/10/17 07:21:21;;;;;;;19.98;17.88;;;15.40;99.90;;;;;;7367119;19;20600;-48
2022/10/17 07:23:48;;;;;;;19.45;17.45;;;15.40;99.90;;;;;;7369258;19;20018;-44
2022/10/17 07:26:16;;;;;;;17.55;15.68;;;15.60;99.90;;;;;;7370829;19;20022;-42
2022/10/17 07:28:45;;;;;;;18.58;16.13;;;15.80;99.90;;;;;;7375545;19;20312;-44
2022/10/17 07:31:32;;;;;;;18.52;14.85;;;16.10;99.90;;;;;;7373545;19;20106;-49
2022/10/17 07:33:59;;;;;;;16.23;14.52;;;16.30;99.90;;;;;;7372285;19;20019;-44
2022/10/17 07:36:25;;;;;;;16.20;14.48;;;16.30;99.90;;;;;;7366314;19;20047;-44
2022/10/17 07:38:52;;;;;;;15.95;14.27;;;16.40;99.90;;;;;;7370873;19;20098;-43
2022/10/17 07:41:19;;;;;;;16.10;13.05;;;16.50;99.90;;;;;;7368718;19;20035;-44
2022/10/17 07:43:46;;;;;;;15.10;13.50;;;16.50;99.90;;;;;;7372963;19;20391;-45
2022/10/17 07:46:14;;;;;;;14.05;12.65;;;16.60;99.90;;;;;;7369728;19;20562;-43
2022/10/17 07:48:41;;;;;;;15.73;13.20;;;16.80;99.90;;;;;;7372427;19;20021;-45
2022/10/17 07:51:08;;;;;;;14.40;12.05;;;17.00;99.90;;;;;;7371806;19;20014;-46
2022/10/17 07:53:36;;;;;;;14.23;12.55;;;17.00;99.90;;;;;;7370970;19;20496;-45
2022/10/17 07:56:05;;;;;;;15.38;12.30;;;16.90;99.90;;;;;;7370620;19;20022;-47
2022/10/17 07:58:31;;;;;;;16.35;12.10;;;16.90;99.90;;;;;;7367653;19;20035;-44
2022/10/17 08:01:05;;;;;;;13.90;11.57;;;16.90;99.90;;;;;;7369468;19;20616;-45
2022/10/17 08:03:32;;;;;;;14.32;11.95;;;16.90;99.90;;;;;;7370396;19;20014;-46
2022/10/17 08:06:01;;;;;;;15.38;12.75;;;16.90;99.90;;;;;;7370292;19;20033;-43
2022/10/17 08:08:28;;;;;;;16.83;11.70;;;16.90;99.90;;;;;;7371827;19;20478;-44
2022/10/17 08:11:00;;;;;;;11.38;10.27;;;16.90;99.90;;;;;;7371480;19;20029;-46
2022/10/17 08:13:26;;;;;;;15.65;11.70;;;16.90;99.90;;;;;;7375298;19;20014;-48
2022/10/17 08:15:52;;;;;;;14.95;11.27;;;16.90;99.90;;;;;;7371811;19;20021;-46
2022/10/17 08:18:19;;;;;;;12.48;10.52;;;16.90;99.90;;;;;;7374970;19;20453;-44
2022/10/17 08:20:47;;;;;;;13.90;10.98;;;16.90;99.90;;;;;;7370956;19;20049;-46
2022/10/17 08:23:13;;;;;;;14.13;10.55;;;16.90;99.90;;;;;;7375843;19;20561;-42
2022/10/17 08:25:40;;;;;;;13.98;10.82;;;16.80;99.90;;;;;;7372597;19;20035;-42
2022/10/17 08:28:07;;;;;;;13.48;10.80;;;16.80;99.90;;;;;;7370822;19;20498;-45
2022/10/17 08:30:33;;;;;;;12.57;10.57;;;16.80;99.90;;;;;;7367457;19;21031;-43
2022/10/17 08:32:59;;;;;;;11.43;10.32;;;16.80;99.90;;;;;;7367527;19;20014;-43
2022/10/17 08:35:26;;;;;;;12.23;10.05;;;16.70;99.90;;;;;;7371416;19;20466;-46
2022/10/17 08:37:52;;;;;;;11.70;10.50;;;16.70;99.90;;;;;;7367962;19;20324;-44
2022/10/17 08:40:24;;;;;;;12.63;10.35;;;16.70;99.90;;;;;;7370807;19;20097;-44
2022/10/17 08:43:09;;;;;;;;;;;16.70;99.90;;;;;;7374623;19;20666;-43
2022/10/17 08:45:50;;;;;;;12.73;11.43;;;16.70;99.90;;;;;;7373279;19;19984;-47
2022/10/17 08:48:20;;;;;;;13.33;12.03;;;16.70;99.90;;;;;;7371407;19;20018;-43
2022/10/17 08:51:00;;;;;;;11.52;10.43;;;16.80;99.90;;;;;;7371574;19;20730;-47
2022/10/17 08:53:40;;;;;;;12.70;10.85;;;16.80;99.90;;;;;;7368600;19;20102;-45
2022/10/17 08:56:23;;;;;;;11.20;10.02;;;16.90;99.90;;;;;;7369430;19;20386;-44
2022/10/17 08:58:51;;;;;;;11.98;9.57;;;16.90;99.90;;;;;;7368710;19;20584;-43
2022/10/17 09:01:26;;;;;;;14.82;10.60;;;16.90;99.90;;;;;;7369928;19;20458;-42
2022/10/17 09:04:19;;;;;;;12.52;10.63;;;17.00;99.90;;;;;;7368196;19;20026;-44
2022/10/17 09:07:32;;;;;;;13.05;10.68;;;16.90;99.90;;;;;;7364693;19;21153;-46
2022/10/17 09:10:14;;;;;;;13.10;10.90;;;16.90;99.90;;;;;;7368607;19;20018;-43
2022/10/17 09:13:17;;;;;;;15.25;9.75;;;16.90;99.90;;;;;;7366293;19;20018;-42
2022/10/17 09:15:52;;;;;;;11.73;10.20;;;17.00;99.90;;;;;;7368119;19;20101;-45
2022/10/17 09:18:27;;;;;;;11.02;9.90;;;17.00;99.90;;;;;;7367128;19;20019;-48
2022/10/17 09:21:00;;;;;;;13.93;10.88;;;17.00;99.90;;;;;;7369888;19;20014;-48
2022/10/17 09:23:37;;;;;;;10.88;9.75;;;17.10;99.90;;;;;;7364361;19;20053;-48
2022/10/17 09:26:04;;;;;;;10.65;9.55;;;17.10;99.90;;;;;;7367364;19;20025;-45
2022/10/17 09:28:34;;;;;;;11.50;10.05;;;17.20;99.90;;;;;;7367855;19;20018;-46
2022/10/17 09:31:13;;;;;;;12.05;9.27;;;17.30;99.90;;;;;;7369016;19;20605;-45
2022/10/17 09:33:42;;;;;;;12.05;9.80;;;17.20;99.90;;;;;;7369673;19;20026;-44
2022/10/17 09:36:31;;;;;;;13.18;10.20;;;17.20;99.90;;;;;;7368369;19;20022;-47
2022/10/17 09:39:00;;;;;;;11.57;10.35;;;17.20;99.90;;;;;;7371907;19;20019;-49
2022/10/17 09:41:39;;;;;;;11.65;10.45;;;17.20;99.90;;;;;;7371566;19;20014;-45
2022/10/17 09:44:31;;;;;;;12.13;10.27;;;17.20;99.90;;;;;;7368274;19;20379;-47
2022/10/17 09:47:15;;;;;;;13.23;10.35;;;17.20;99.90;;;;;;7370147;19;20029;-47
2022/10/17 09:49:44;;;;;;;13.75;11.65;;;17.10;99.90;;;;;;7369491;19;20026;-47
2022/10/17 09:52:15;;;;;;;13.52;11.90;;;17.10;99.90;;;;;;7369226;19;20043;-45
2022/10/17 09:54:51;;;;;;;12.00;10.75;;;17.00;99.90;;;;;;7368991;19;20014;-44
2022/10/17 09:57:20;;;;;;;13.13;11.73;;;17.00;99.90;;;;;;7366459;19;20486;-45
2022/10/17 09:59:56;;;;;;;17.88;13.80;;;16.90;99.90;;;;;;7369059;19;20026;-46
2022/10/17 10:02:24;;;;;;;15.35;13.50;;;16.80;99.90;;;;;;7369427;19;20014;-47
2022/10/17 10:04:59;;;;;;;15.25;13.23;;;16.80;99.90;;;;;;7369176;19;20362;-43
2022/10/17 10:07:31;;;;;;;26.25;23.58;;;16.80;99.90;;;;;;7376721;19;20018;-46
2022/10/17 10:10:00;;;;;;;15.38;13.07;;;16.70;99.90;;;;;;7377307;19;20033;-43
2022/10/17 10:12:32;;;;;;;18.15;14.32;;;16.70;99.90;;;;;;7376941;19;20015;-44
2022/10/17 10:14:59;;;;;;;18.13;15.52;;;16.70;99.90;;;;;;7375371;19;20014;-44
2022/10/17 10:17:27;;;;;;;19.38;16.70;;;16.60;99.90;;;;;;7368662;19;20019;-44
2022/10/17 10:19:54;;;;;;;19.27;14.80;;;16.60;99.90;;;;;;7372284;19;20014;-43
2022/10/17 10:22:25;;;;;;;18.15;16.00;;;16.60;99.90;;;;;;7371831;19;20034;-47
2022/10/17 10:25:07;;;;;;;17.83;15.90;;;16.60;99.90;;;;;;7372410;19;20026;-46
2022/10/17 10:27:34;;;;;;;19.05;16.17;;;16.50;99.90;;;;;;7376961;19;20021;-44
2022/10/17 10:30:19;;;;;;;18.45;15.95;;;16.50;99.90;;;;;;7369461;19;20014;-44
2022/10/17 10:32:49;;;;;;;18.10;16.20;;;16.50;99.90;;;;;;7368294;19;20443;-44
2022/10/17 10:35:21;;;;;;;22.52;16.52;;;16.50;99.90;;;;;;7372003;19;20031;-44
2022/10/17 10:37:54;;;;;;;24.80;17.77;;;16.40;99.90;;;;;;7373470;19;20022;-45
2022/10/17 10:40:49;;;;;;;20.65;18.35;;;16.40;99.90;;;;;;7372884;19;20035;-45
2022/10/17 10:43:39;;;;;;;23.92;18.90;;;16.40;99.90;;;;;;7372831;19;20382;-45
2022/10/17 10:46:18;;;;;;;23.27;19.30;;;16.40;99.90;;;;;;7367257;19;20021;-45
2022/10/17 10:48:57;;;;;;;25.55;19.83;;;16.30;99.90;;;;;;7373706;19;20479;-46
2022/10/17 10:51:32;;;;;;;29.10;20.90;;;16.30;99.90;;;;;;7376060;19;20640;-45
2022/10/17 10:54:07;;;;;;;32.55;20.92;;;16.30;99.90;;;;;;7375864;19;20019;-44
2022/10/17 10:56:42;;;;;;;32.65;23.17;;;16.30;99.90;;;;;;7367140;19;20018;-45
2022/10/17 10:59:08;;;;;;;36.55;24.65;;;16.30;99.90;;;;;;7372606;19;20101;-45
2022/10/17 11:01:49;;;;;;;29.50;21.75;;;16.30;99.90;;;;;;7374257;19;20026;-46
2022/10/17 11:04:33;;;;;;;26.83;20.73;;;16.30;99.90;;;;;;7373757;19;20022;-46
2022/10/17 11:07:06;;;;;;;33.67;22.63;;;16.30;99.90;;;;;;7370951;19;20018;-46
2022/10/17 11:10:11;;;;;;;29.85;22.83;;;16.30;99.90;;;;;;7374316;19;20015;-47
2022/10/17 11:12:51;;;;;;;34.22;23.05;;;16.40;99.90;;;;;;7365771;19;20458;-46
2022/10/17 11:15:46;;;;;;;29.27;22.33;;;16.40;99.90;;;;;;7370252;19;20039;-44
2022/10/17 11:18:22;;;;;;;30.40;23.75;;;16.50;99.90;;;;;;7371179;19;21885;-46
2022/10/17 11:21:02;;;;;;;36.38;27.58;;;16.50;99.90;;;;;;7371082;19;20521;-45
2022/10/17 11:23:51;;;;;;;29.00;23.50;;;16.50;99.90;;;;;;7370021;19;20018;-46
2022/10/17 11:26:25;;;;;;;33.58;24.00;;;16.50;99.90;;;;;;7372064;19;20030;-46
2022/10/17 11:28:57;;;;;;;35.85;26.08;;;16.40;99.90;;;;;;7371554;19;20019;-45
2022/10/17 11:31:29;;;;;;;27.33;22.90;;;16.40;99.90;;;;;;7376461;19;20038;-46
2022/10/17 11:34:18;;;;;;;29.35;23.63;;;16.40;99.90;;;;;;7372109;19;20025;-45
2022/10/17 11:36:47;;;;;;;31.33;24.30;;;16.50;99.90;;;;;;7367479;19;20105;-46
2022/10/17 11:39:40;;;;;;;30.77;25.60;;;16.40;99.90;;;;;;7374544;19;20486;-46
2022/10/17 11:42:13;;;;;;;28.77;24.05;;;16.50;99.90;;;;;;7370090;19;20014;-45
2022/10/17 11:44:41;;;;;;;29.70;23.98;;;16.40;99.90;;;;;;7369259;19;20034;-45
2022/10/17 11:47:31;;;;;;;28.13;24.63;;;16.50;99.90;;;;;;7368577;19;20074;-45
2022/10/17 11:50:38;;;;;;;30.90;23.70;;;16.50;99.90;;;;;;7367357;19;20132;-46
2022/10/17 11:53:19;;;;;;;34.10;23.95;;;16.50;99.90;;;;;;7371144;19;20433;-47
2022/10/17 11:55:46;;;;;;;29.98;23.30;;;16.40;99.90;;;;;;7371665;19;20523;-44
2022/10/17 11:58:34;;;;;;;30.95;25.17;;;16.40;99.90;;;;;;7367338;19;20446;-47
2022/10/17 12:01:16;;;;;;;28.58;23.65;;;16.50;99.90;;;;;;7373021;19;20049;-45
2022/10/17 12:04:06;;;;;;;26.42;23.52;;;16.50;99.90;;;;;;7367628;19;20023;-47
2022/10/17 12:07:04;;;;;;;30.55;23.00;;;16.50;99.90;;;;;;7366261;19;20018;-45
2022/10/17 12:09:54;;;;;;;29.20;22.85;;;16.50;99.90;;;;;;7363285;19;20025;-45
2022/10/17 12:12:28;;;;;;;24.77;22.02;;;16.50;99.90;;;;;;7360597;19;20052;-49
2022/10/17 12:15:24;;;;;;;26.13;22.75;;;16.60;99.90;;;;;;7366639;19;20026;-47
2022/10/17 12:18:02;;;;;;;22.48;19.55;;;16.70;99.90;;;;;;7371022;19;20383;-48
2022/10/17 12:20:34;;;;;;;21.90;19.60;;;16.80;99.90;;;;;;7370000;19;20014;-46
2022/10/17 12:23:16;;;;;;;21.63;19.42;;;16.90;99.90;;;;;;7370428;19;20482;-45
2022/10/17 12:25:56;;;;;;;;;;;16.90;99.90;;;;;;7368475;19;20122;-45
2022/10/17 12:28:28;;;;;;;21.52;19.40;;;16.90;99.90;;;;;;7371629;19;20007;-47
2022/10/17 12:30:59;;;;;;;18.08;16.25;;;17.00;99.90;;;;;;7373458;19;20688;-45
2022/10/17 12:33:33;;;;;;;17.55;15.93;;;17.00;99.90;;;;;;7371061;19;20026;-46
2022/10/17 12:36:26;;;;;;;18.50;16.73;;;17.10;99.90;;;;;;7367385;19;20029;-44
2022/10/17 12:39:01;;;;;;;16.45;14.85;;;17.00;99.90;;;;;;7365908;19;20022;-46
2022/10/17 12:41:37;;;;;;;22.13;17.50;;;17.00;99.90;;;;;;7372462;19;20019;-45
2022/10/17 12:44:13;;;;;;;15.63;14.02;;;17.00;99.90;;;;;;7373601;19;20011;-45
2022/10/17 12:47:04;;;;;;;15.05;13.43;;;17.00;99.90;;;;;;7370976;19;20043;-45
2022/10/17 12:49:45;;;;;;;15.10;13.45;;;17.00;99.90;;;;;;7368168;19;20022;-45
2022/10/17 12:52:22;;;;;;;16.30;14.73;;;17.00;99.90;;;;;;7370545;19;20010;-45
2022/10/17 12:54:51;;;;;;;16.08;14.45;;;17.00;99.90;;;;;;7369215;19;20026;-45
2022/10/17 12:57:29;;;;;;;16.30;13.25;;;17.00;99.90;;;;;;7365922;19;20015;-44
2022/10/17 12:59:56;;;;;;;13.77;12.45;;;17.00;99.90;;;;;;7369646;19;20018;-46
2022/10/17 13:02:27;;;;;;;13.48;12.10;;;17.00;99.90;;;;;;7368636;19;20029;-46
2022/10/17 13:05:04;;;;;;;14.52;12.25;;;17.00;99.90;;;;;;7363556;19;20014;-44